createdAt,value
2023-01-21T00:02:12.461Z,7.45
2023-01-21T00:05:24.605Z,7.90
2023-01-21T00:08:36.964Z,6.80
2023-01-21T00:11:49.029Z,6.88
2023-01-21T00:15:01.079Z,7.43
2023-01-21T00:18:14.123Z,7.43
2023-01-21T00:21:26.198Z,6.98
2023-01-21T00:24:38.308Z,6.73
2023-01-21T00:27:50.305Z,7.00
2023-01-21T00:31:08.038Z,7.70
2023-01-21T00:34:21.576Z,6.20
2023-01-21T00:37:33.691Z,6.85
2023-01-21T00:40:45.886Z,6.43
2023-01-21T00:43:58.622Z,7.05
2023-01-21T00:47:11.222Z,7.80
2023-01-21T00:50:24.054Z,7.90
2023-01-21T00:53:38.323Z,7.45
2023-01-21T00:56:50.457Z,7.05
2023-01-21T01:00:02.710Z,8.03
2023-01-21T01:03:15.018Z,7.73
2023-01-21T01:06:29.848Z,6.83
2023-01-21T01:09:42.193Z,7.30
2023-01-21T01:12:54.152Z,7.05
2023-01-21T01:16:06.371Z,7.10
2023-01-21T01:19:19.328Z,7.33
2023-01-21T01:22:31.338Z,7.48
2023-01-21T01:25:43.431Z,6.93
2023-01-21T01:28:56.674Z,6.00
2023-01-21T01:32:11.760Z,6.43
2023-01-21T01:35:23.948Z,6.20
2023-01-21T01:38:36.892Z,6.55
2023-01-21T01:41:49.272Z,6.80
2023-01-21T01:45:08.262Z,6.05
2023-01-21T01:48:24.710Z,6.25
2023-01-21T01:51:46.792Z,6.65
2023-01-21T01:55:03.492Z,6.63
2023-01-21T01:58:20.217Z,6.10
2023-01-21T02:04:48.915Z,5.15
2023-01-21T02:08:01.034Z,5.75
2023-01-21T02:11:19.390Z,5.68
2023-01-21T02:14:31.697Z,6.00
2023-01-21T02:17:58.748Z,5.23
2023-01-21T02:21:50.616Z,5.08
2023-01-21T02:25:51.593Z,5.60
2023-01-21T02:29:57.199Z,5.33
2023-01-21T02:33:37.605Z,5.70
2023-01-21T02:37:12.695Z,4.70
2023-01-21T02:40:32.642Z,4.73
2023-01-21T02:43:51.951Z,5.23
2023-01-21T02:47:09.584Z,5.13
2023-01-21T02:50:25.353Z,4.65
2023-01-21T02:53:40.471Z,4.85
2023-01-21T02:56:52.715Z,4.60
2023-01-21T03:00:06.047Z,4.93
2023-01-21T03:04:00.245Z,5.03
2023-01-21T03:07:19.054Z,4.90
2023-01-21T03:10:36.985Z,4.38
2023-01-21T03:14:08.837Z,4.85
2023-01-21T03:17:28.873Z,4.45
2023-01-21T03:20:44.856Z,4.15
2023-01-21T03:24:00.061Z,4.20
2023-01-21T03:27:13.959Z,4.13
2023-01-21T03:30:29.762Z,3.93
2023-01-21T03:33:46.893Z,4.30
2023-01-21T03:37:04.134Z,4.28
2023-01-21T03:40:29.989Z,4.25
2023-01-21T03:43:42.245Z,3.95
2023-01-21T03:47:01.057Z,4.20
2023-01-21T03:50:19.349Z,3.70
2023-01-21T03:53:31.996Z,3.45
2023-01-21T03:56:44.266Z,4.08
2023-01-21T03:59:56.407Z,3.45
2023-01-21T04:03:08.581Z,3.43
2023-01-21T04:06:23.683Z,3.58
2023-01-21T04:09:36.071Z,3.08
2023-01-21T04:12:48.227Z,3.80
2023-01-21T04:16:00.176Z,3.80
2023-01-21T04:19:12.489Z,3.68
2023-01-21T04:22:24.795Z,3.43
2023-01-21T04:25:36.788Z,3.33
2023-01-21T04:28:49.004Z,3.53
2023-01-21T04:32:01.251Z,3.53
2023-01-21T04:35:15.629Z,3.45
2023-01-21T04:38:27.580Z,3.65
2023-01-21T04:41:39.601Z,3.03
2023-01-21T04:44:52.294Z,2.85
2023-01-21T04:48:04.110Z,2.90
2023-01-21T04:51:16.259Z,3.15
2023-01-21T04:54:28.318Z,2.58
2023-01-21T04:57:42.349Z,3.05
2023-01-21T05:00:54.897Z,2.60
2023-01-21T05:04:07.286Z,2.63
2023-01-21T05:07:21.632Z,3.03
2023-01-21T05:10:33.529Z,3.20
2023-01-21T05:13:45.532Z,2.95
2023-01-21T05:16:57.630Z,3.05
2023-01-21T05:20:11.275Z,2.95
2023-01-21T05:23:23.237Z,2.55
2023-01-21T05:26:35.398Z,2.85
2023-01-21T05:29:47.710Z,2.70
2023-01-21T05:33:01.384Z,7.08
2023-01-21T05:36:15.685Z,3.05
2023-01-21T05:39:27.715Z,2.85
2023-01-21T05:42:40.212Z,2.83
2023-01-21T05:45:52.558Z,2.65
2023-01-21T05:49:04.831Z,2.68
2023-01-21T05:52:17.350Z,3.65
2023-01-21T05:55:29.355Z,2.75
2023-01-21T05:58:42.019Z,2.80
2023-01-21T06:01:54.258Z,2.53
2023-01-21T06:05:06.196Z,2.68
2023-01-21T06:08:19.101Z,2.73
2023-01-21T06:11:31.396Z,2.63
2023-01-21T06:14:43.699Z,2.60
2023-01-21T06:17:55.805Z,2.35
2023-01-21T06:21:08.403Z,3.33
2023-01-21T06:24:24.330Z,3.43
2023-01-21T06:27:37.365Z,3.10
2023-01-21T06:30:49.566Z,2.60
2023-01-21T06:34:01.577Z,2.90
2023-01-21T06:37:13.672Z,3.00
2023-01-21T06:40:25.918Z,2.88
2023-01-21T06:43:38.376Z,3.18
2023-01-21T06:47:00.699Z,5.03
2023-01-21T06:50:04.729Z,13.05
2023-01-21T06:53:16.940Z,5.75
2023-01-21T06:56:31.516Z,3.48
2023-01-21T06:59:44.125Z,3.10
2023-01-21T07:02:58.250Z,3.08
2023-01-21T07:06:10.999Z,3.53
2023-01-21T07:09:23.614Z,4.20
2023-01-21T07:12:35.857Z,4.80
2023-01-21T07:15:47.976Z,3.68
2023-01-21T07:19:00.384Z,2.88
2023-01-21T07:22:12.756Z,3.00
2023-01-21T07:25:25.644Z,3.55
2023-01-21T07:28:37.684Z,3.20
2023-01-21T07:31:49.973Z,2.90
2023-01-21T07:35:02.296Z,2.70
2023-01-21T07:38:14.374Z,2.70
2023-01-21T07:41:28.825Z,2.60
2023-01-21T07:44:41.461Z,3.43
2023-01-21T07:47:53.566Z,3.20
2023-01-21T07:51:06.621Z,2.75
2023-01-21T07:54:19.938Z,2.58
2023-01-21T07:57:32.189Z,3.13
2023-01-21T08:00:44.374Z,2.63
2023-01-21T08:03:56.440Z,2.70
2023-01-21T08:07:11.850Z,3.23
2023-01-21T08:10:25.473Z,3.10
2023-01-21T08:13:37.472Z,2.98
2023-01-21T08:16:49.456Z,3.00
2023-01-21T08:20:01.630Z,2.73
2023-01-21T08:23:13.635Z,2.65
2023-01-21T08:26:25.901Z,3.00
2023-01-21T08:29:38.138Z,3.08
2023-01-21T08:32:50.237Z,3.30
2023-01-21T08:36:07.109Z,2.75
2023-01-21T08:39:21.014Z,2.70
2023-01-21T08:42:33.202Z,2.88
2023-01-21T08:45:45.544Z,3.10
2023-01-21T08:48:57.769Z,3.78
2023-01-21T08:52:10.456Z,3.78
2023-01-21T08:55:25.318Z,3.63
2023-01-21T08:58:39.301Z,4.38
2023-01-21T09:01:51.451Z,3.65
2023-01-21T09:05:03.627Z,3.50
2023-01-21T09:08:15.834Z,3.73
2023-01-21T09:11:28.228Z,3.20
2023-01-21T09:14:40.459Z,3.55
2023-01-21T09:17:52.601Z,3.40
2023-01-21T09:21:10.916Z,4.13
2023-01-21T09:24:23.735Z,4.30
2023-01-21T09:27:35.927Z,3.80
2023-01-21T09:30:47.911Z,4.28
2023-01-21T09:34:03.800Z,3.78
2023-01-21T09:37:15.937Z,4.08
2023-01-21T09:40:28.199Z,3.75
2023-01-21T09:43:45.933Z,3.90
2023-01-21T09:47:05.275Z,4.40
2023-01-21T09:50:21.939Z,4.80
2023-01-21T09:53:42.604Z,4.55
2023-01-21T09:57:23.246Z,4.33
2023-01-21T10:00:47.644Z,5.00
2023-01-21T10:04:04.250Z,5.40
2023-01-21T10:07:20.490Z,6.38
2023-01-21T10:10:37.919Z,7.33
2023-01-21T10:14:04.175Z,7.00
2023-01-21T10:17:22.490Z,8.68
2023-01-21T10:20:40.495Z,6.98
2023-01-21T10:23:57.727Z,6.20
2023-01-21T10:27:12.916Z,7.20
2023-01-21T10:30:35.645Z,7.65
2023-01-21T10:33:48.485Z,6.98
2023-01-21T10:37:10.001Z,7.50
2023-01-21T10:40:40.884Z,7.40
2023-01-21T10:43:58.895Z,8.43
2023-01-21T10:47:18.548Z,8.20
2023-01-21T10:50:41.599Z,9.33
2023-01-21T10:53:58.135Z,8.65
2023-01-21T10:57:16.701Z,9.73
2023-01-21T11:00:32.572Z,9.10
2023-01-21T11:03:48.753Z,9.35
2023-01-21T11:07:06.671Z,9.13
2023-01-21T11:10:26.572Z,9.35
2023-01-21T11:13:41.177Z,9.33
2023-01-21T11:16:55.603Z,9.90
2023-01-21T11:20:11.179Z,10.45
2023-01-21T11:23:35.632Z,11.00
2023-01-21T11:26:55.766Z,9.10
2023-01-21T11:30:31.450Z,9.13
2023-01-21T11:33:33.575Z,8.43
2023-01-21T11:36:59.600Z,9.93
2023-01-21T11:40:20.928Z,10.70
2023-01-21T11:43:46.623Z,9.68
2023-01-21T11:46:59.231Z,9.88
2023-01-21T11:50:23.272Z,9.23
2023-01-21T11:53:35.472Z,10.48
2023-01-21T11:56:51.105Z,11.60
2023-01-21T12:00:13.186Z,10.60
2023-01-21T12:03:29.198Z,10.30
2023-01-21T12:06:41.617Z,9.90
2023-01-21T12:10:02.352Z,10.58
2023-01-21T12:13:28.226Z,12.23
2023-01-21T12:16:44.555Z,11.33
2023-01-21T12:20:11.574Z,11.40
2023-01-21T12:23:54.243Z,11.35
2023-01-21T12:27:15.319Z,12.55
2023-01-21T12:30:36.307Z,13.33
2023-01-21T12:34:00.513Z,14.33
2023-01-21T12:37:18.423Z,11.63
2023-01-21T12:40:36.146Z,11.13
2023-01-21T12:43:54.567Z,11.33
2023-01-21T12:47:16.027Z,11.43
2023-01-21T12:50:35.405Z,12.68
2023-01-21T12:53:53.683Z,12.95
2023-01-21T12:57:11.435Z,11.93
2023-01-21T13:00:30.654Z,11.28
2023-01-21T13:03:52.894Z,11.33
2023-01-21T13:07:12.184Z,12.43
2023-01-21T13:10:30.689Z,13.55
2023-01-21T13:13:48.564Z,13.70
2023-01-21T13:17:05.141Z,12.20
2023-01-21T13:20:26.684Z,12.05
2023-01-21T13:23:44.535Z,11.58
2023-01-21T13:27:05.250Z,12.85
2023-01-21T13:30:27.528Z,14.15
2023-01-21T13:33:48.395Z,14.25
2023-01-21T13:37:13.411Z,13.40
2023-01-21T13:40:38.742Z,12.73
2023-01-21T13:44:11.098Z,14.30
2023-01-21T13:47:34.613Z,15.03
2023-01-21T13:51:19.076Z,14.03
2023-01-21T13:55:08.594Z,14.10
2023-01-21T13:58:26.684Z,15.35
2023-01-21T14:01:45.178Z,15.73
2023-01-21T14:05:02.312Z,16.28
2023-01-21T14:08:18.603Z,16.10
2023-01-21T14:11:34.322Z,16.23
2023-01-21T14:15:21.444Z,15.95
2023-01-21T14:19:07.056Z,17.58
2023-01-21T14:22:44.512Z,18.35
2023-01-21T14:26:26.744Z,17.15
2023-01-21T14:29:46.589Z,16.85
2023-01-21T14:33:02.883Z,17.18
2023-01-21T14:36:20.529Z,19.08
2023-01-21T14:39:51.542Z,18.40
2023-01-21T14:43:04.331Z,17.85
2023-01-21T14:46:33.681Z,18.53
2023-01-21T14:49:51.529Z,19.08
2023-01-21T14:53:04.308Z,23.83
2023-01-21T14:56:29.137Z,24.48
2023-01-21T14:59:46.266Z,21.93
2023-01-21T15:03:11.482Z,22.18
2023-01-21T15:06:28.064Z,21.83
2023-01-21T15:09:46.021Z,21.65
2023-01-21T15:13:02.442Z,22.45
2023-01-21T15:16:24.037Z,23.28
2023-01-21T15:19:39.009Z,22.68
2023-01-21T15:22:51.112Z,20.52
2023-01-21T15:26:37.263Z,21.63
2023-01-21T15:29:51.247Z,22.65
2023-01-21T15:33:03.956Z,22.10
2023-01-21T15:36:31.931Z,22.85
2023-01-21T15:39:44.879Z,19.90
2023-01-21T15:43:04.859Z,20.30
2023-01-21T15:46:29.286Z,21.73
2023-01-21T15:49:56.929Z,20.40
2023-01-21T15:53:36.671Z,19.98
2023-01-21T15:57:23.491Z,17.18
2023-01-21T16:00:43.942Z,18.80
2023-01-21T16:04:08.404Z,20.58
2023-01-21T16:07:29.627Z,23.00
2023-01-21T16:10:48.835Z,18.35
2023-01-21T16:14:07.844Z,18.93
2023-01-21T16:17:26.114Z,18.03
2023-01-21T16:20:39.315Z,19.95
2023-01-21T16:23:52.178Z,21.53
2023-01-21T16:27:22.933Z,20.68
2023-01-21T16:30:37.437Z,21.40
2023-01-21T16:33:50.675Z,20.18
2023-01-21T16:37:02.987Z,20.65
2023-01-21T16:40:35.984Z,23.30
2023-01-21T16:43:52.085Z,24.68
2023-01-21T16:47:04.479Z,23.37
2023-01-21T16:50:28.995Z,23.02
2023-01-21T16:53:41.117Z,22.98
2023-01-21T16:56:57.857Z,22.43
2023-01-21T17:00:16.666Z,23.88
2023-01-21T17:03:28.744Z,26.05
2023-01-21T17:06:40.801Z,23.98
2023-01-21T17:09:58.715Z,23.10
2023-01-21T17:13:18.688Z,23.33
2023-01-21T17:16:37.988Z,22.05
2023-01-21T17:19:51.141Z,23.20
2023-01-21T17:23:10.373Z,23.15
2023-01-21T17:26:26.876Z,25.58
2023-01-21T17:29:40.415Z,25.08
2023-01-21T17:33:00.428Z,24.23
2023-01-21T17:36:19.385Z,25.40
2023-01-21T17:40:06.369Z,24.15
2023-01-21T17:43:26.113Z,24.18
2023-01-21T17:46:38.952Z,24.23
2023-01-21T17:49:52.948Z,26.93
2023-01-21T17:53:10.545Z,24.88
2023-01-21T17:56:38.762Z,27.53
2023-01-21T17:59:52.905Z,28.85
2023-01-21T18:03:05.646Z,28.13
2023-01-21T18:06:24.837Z,32.03
2023-01-21T18:09:38.244Z,32.45
2023-01-21T18:12:50.545Z,28.70
2023-01-21T18:16:02.768Z,27.43
2023-01-21T18:19:31.409Z,28.08
2023-01-21T18:22:43.765Z,26.05
2023-01-21T18:25:58.023Z,30.13
2023-01-21T18:29:11.757Z,29.10
2023-01-21T18:32:24.526Z,29.45
2023-01-21T18:35:37.655Z,29.70
2023-01-21T18:38:50.004Z,29.90
2023-01-21T18:42:02.309Z,29.13
2023-01-21T18:45:21.277Z,29.85
2023-01-21T18:48:36.472Z,30.93
2023-01-21T18:51:48.987Z,27.38
2023-01-21T18:55:02.554Z,33.20
2023-01-21T18:58:19.565Z,42.68
2023-01-21T19:01:32.077Z,43.58
2023-01-21T19:04:44.459Z,46.03
2023-01-21T19:07:57.118Z,45.40
2023-01-21T19:11:09.496Z,45.53
2023-01-21T19:14:22.207Z,41.48
2023-01-21T19:17:38.353Z,37.30
2023-01-21T19:20:51.229Z,38.15
2023-01-21T19:24:03.513Z,38.80
2023-01-21T19:27:20.647Z,37.13
2023-01-21T19:30:35.690Z,36.03
2023-01-21T19:33:47.842Z,37.40
2023-01-21T19:37:00.742Z,36.10
2023-01-21T19:40:22.179Z,35.75
2023-01-21T19:43:34.726Z,42.23
2023-01-21T19:46:46.806Z,43.18
2023-01-21T19:49:59.419Z,41.40
2023-01-21T19:53:13.479Z,41.15
2023-01-21T19:56:29.517Z,42.40
2023-01-21T19:59:41.762Z,46.20
2023-01-21T20:02:54.482Z,47.08
2023-01-21T20:06:09.108Z,56.98
2023-01-21T20:09:21.897Z,54.70
2023-01-21T20:12:34.086Z,48.63
2023-01-21T20:15:48.662Z,50.00
2023-01-21T20:19:02.373Z,55.75
2023-01-21T20:22:14.937Z,53.80
2023-01-21T20:25:30.648Z,54.80
2023-01-21T20:28:49.650Z,59.50
2023-01-21T20:32:02.144Z,63.63
2023-01-21T20:35:17.039Z,59.73
2023-01-21T20:38:34.251Z,56.23
2023-01-21T20:41:46.355Z,56.85
2023-01-21T20:44:58.677Z,55.23
2023-01-21T20:48:14.584Z,52.60
2023-01-21T20:51:27.282Z,57.00
2023-01-21T20:54:40.750Z,57.40
2023-01-21T20:57:53.658Z,56.88
2023-01-21T21:01:06.084Z,53.88
2023-01-21T21:04:18.475Z,53.85
2023-01-21T21:07:30.485Z,53.18
2023-01-21T21:10:43.458Z,50.33
2023-01-21T21:13:56.717Z,55.03
2023-01-21T21:17:09.493Z,54.95
2023-01-21T21:20:27.586Z,52.38
2023-01-21T21:23:39.698Z,47.38
2023-01-21T21:26:51.992Z,46.88
2023-01-21T21:30:04.241Z,46.73
2023-01-21T21:33:24.263Z,43.73
2023-01-21T21:36:36.632Z,46.40
2023-01-21T21:39:48.923Z,50.85
2023-01-21T21:43:16.067Z,48.38
2023-01-21T21:46:42.721Z,45.73
2023-01-21T21:49:55.019Z,45.70
2023-01-21T21:53:08.282Z,43.23
2023-01-21T21:56:23.380Z,43.43
2023-01-21T21:59:35.833Z,44.00
2023-01-21T22:02:48.042Z,44.85
2023-01-21T22:06:03.065Z,43.35
2023-01-21T22:09:15.588Z,39.88
2023-01-21T22:12:27.717Z,39.43
2023-01-21T22:15:39.936Z,39.23
2023-01-21T22:18:52.410Z,37.48
2023-01-21T22:22:04.778Z,35.48
2023-01-21T22:25:17.719Z,38.03
2023-01-21T22:28:30.435Z,38.48
2023-01-21T22:31:43.664Z,39.73
2023-01-21T22:34:56.010Z,38.95
2023-01-21T22:38:08.249Z,39.70
2023-01-21T22:41:23.580Z,38.63
2023-01-21T22:44:35.895Z,39.15
2023-01-21T22:47:47.946Z,35.93
2023-01-21T22:51:02.542Z,38.75
2023-01-21T22:54:15.748Z,40.18
2023-01-21T22:57:28.356Z,40.40
2023-01-21T23:00:44.908Z,39.15
2023-01-21T23:03:57.124Z,40.20
2023-01-21T23:07:09.479Z,37.43
2023-01-21T23:10:22.134Z,39.03
2023-01-21T23:13:34.729Z,40.48
2023-01-21T23:16:47.119Z,40.68
2023-01-21T23:19:59.128Z,37.75
2023-01-21T23:23:11.345Z,36.65
2023-01-21T23:26:24.403Z,37.55
2023-01-21T23:29:37.830Z,35.45
2023-01-21T23:32:49.795Z,36.43
2023-01-21T23:36:05.111Z,36.35
2023-01-21T23:39:17.089Z,39.70
2023-01-21T23:42:29.214Z,35.78
2023-01-21T23:45:41.580Z,35.65
2023-01-21T23:48:53.804Z,39.90
2023-01-21T23:52:08.062Z,37.10
2023-01-21T23:55:20.364Z,35.15
2023-01-21T23:58:32.364Z,37.70
